createdAt,value
2023-02-11T00:02:09.923Z,99.69
2023-02-11T00:04:36.481Z,100.00
2023-02-11T00:07:03.008Z,99.59
2023-02-11T00:09:31.814Z,99.90
2023-02-11T00:11:58.708Z,100.00
2023-02-11T00:14:25.208Z,99.75
2023-02-11T00:16:52.363Z,99.97
2023-02-11T00:19:19.025Z,99.94
2023-02-11T00:21:45.499Z,100.00
2023-02-11T00:24:11.973Z,99.55
2023-02-11T00:26:38.762Z,99.74
2023-02-11T00:29:05.824Z,100.00
2023-02-11T00:31:32.908Z,100.00
2023-02-11T00:33:59.661Z,99.62
2023-02-11T00:36:29.355Z,100.00
2023-02-11T00:38:57.402Z,99.71
2023-02-11T00:41:25.007Z,100.00
2023-02-11T00:43:51.923Z,99.99
2023-02-11T00:46:21.954Z,99.84
2023-02-11T00:48:49.107Z,100.00
2023-02-11T00:51:15.669Z,100.00
2023-02-11T00:53:42.439Z,99.86
2023-02-11T00:56:09.552Z,100.00
2023-02-11T00:58:36.731Z,100.00
2023-02-11T01:01:03.867Z,100.00
2023-02-11T01:03:33.078Z,100.00
2023-02-11T01:05:59.637Z,100.00
2023-02-11T01:08:26.260Z,100.00
2023-02-11T01:11:01.837Z,100.00
2023-02-11T01:13:30.575Z,100.00
2023-02-11T01:15:57.681Z,100.00
2023-02-11T01:18:24.714Z,100.00
2023-02-11T01:20:52.379Z,100.00
2023-02-11T01:23:19.322Z,100.00
2023-02-11T01:25:46.073Z,100.00
2023-02-11T01:28:29.678Z,100.00
2023-02-11T01:30:56.677Z,100.00
2023-02-11T01:33:24.182Z,100.00
2023-02-11T01:35:51.346Z,100.00
2023-02-11T01:38:21.754Z,100.00
2023-02-11T01:40:54.760Z,100.00
2023-02-11T01:43:22.158Z,100.00
2023-02-11T01:45:57.868Z,100.00
2023-02-11T01:48:34.288Z,100.00
2023-02-11T01:51:09.912Z,100.00
2023-02-11T01:53:58.509Z,100.00
2023-02-11T01:56:48.854Z,100.00
2023-02-11T01:59:24.615Z,100.00
2023-02-11T02:01:59.027Z,100.00
2023-02-11T02:04:33.374Z,100.00
2023-02-11T02:07:06.524Z,100.00
2023-02-11T02:09:40.172Z,100.00
2023-02-11T02:12:06.712Z,100.00
2023-02-11T02:14:33.463Z,100.00
2023-02-11T02:17:00.288Z,100.00
2023-02-11T02:20:11.387Z,100.00
2023-02-11T02:22:43.715Z,100.00
2023-02-11T02:25:28.644Z,100.00
2023-02-11T02:28:18.695Z,100.00
2023-02-11T02:31:26.042Z,100.00
2023-02-11T02:34:24.378Z,100.00
2023-02-11T02:37:21.617Z,100.00
2023-02-11T02:39:50.325Z,100.00
2023-02-11T02:42:18.710Z,100.00
2023-02-11T02:44:50.454Z,100.00
2023-02-11T02:47:17.114Z,100.00
2023-02-11T02:49:43.712Z,100.00
2023-02-11T02:52:20.842Z,100.00
2023-02-11T02:55:05.354Z,100.00
2023-02-11T02:57:49.827Z,100.00
2023-02-11T03:00:36.276Z,100.00
2023-02-11T03:03:26.479Z,100.00
2023-02-11T03:06:04.548Z,100.00
2023-02-11T03:08:59.734Z,100.00
2023-02-11T03:11:29.308Z,100.00
2023-02-11T03:13:57.417Z,100.00
2023-02-11T03:16:27.247Z,100.00
2023-02-11T03:19:01.579Z,100.00
2023-02-11T03:21:30.973Z,100.00
2023-02-11T03:24:03.085Z,100.00
2023-02-11T03:26:53.044Z,100.00
2023-02-11T03:29:36.324Z,100.00
2023-02-11T03:32:16.029Z,100.00
2023-02-11T03:35:08.003Z,100.00
2023-02-11T03:37:55.649Z,100.00
2023-02-11T03:40:26.174Z,100.00
2023-02-11T03:43:30.981Z,100.00
2023-02-11T03:45:59.093Z,100.00
2023-02-11T03:48:33.542Z,100.00
2023-02-11T03:51:03.248Z,100.00
2023-02-11T03:53:30.287Z,100.00
2023-02-11T03:56:00.271Z,100.00
2023-02-11T03:58:27.086Z,100.00
2023-02-11T04:00:53.882Z,100.00
2023-02-11T04:03:20.438Z,100.00
2023-02-11T04:05:47.346Z,100.00
2023-02-11T04:08:13.937Z,100.00
2023-02-11T04:10:40.632Z,100.00
2023-02-11T04:13:07.164Z,100.00
2023-02-11T04:15:33.652Z,100.00
2023-02-11T04:18:00.155Z,100.00
2023-02-11T04:20:26.847Z,100.00
2023-02-11T04:22:53.278Z,100.00
2023-02-11T04:25:19.924Z,100.00
2023-02-11T04:27:46.426Z,100.00
2023-02-11T04:30:13.480Z,100.00
2023-02-11T04:32:39.961Z,100.00
2023-02-11T04:35:06.983Z,100.00
2023-02-11T04:37:33.578Z,100.00
2023-02-11T04:40:00.128Z,100.00
2023-02-11T04:42:26.658Z,100.00
2023-02-11T04:44:53.102Z,100.00
2023-02-11T04:47:19.816Z,100.00
2023-02-11T04:49:46.557Z,100.00
2023-02-11T04:52:12.985Z,100.00
2023-02-11T04:54:48.484Z,100.00
2023-02-11T04:57:15.018Z,100.00
2023-02-11T04:59:41.999Z,100.00
2023-02-11T05:02:09.517Z,100.00
2023-02-11T05:04:36.035Z,100.00
2023-02-11T05:07:02.825Z,100.00
2023-02-11T05:09:29.534Z,100.00
2023-02-11T05:11:56.099Z,100.00
2023-02-11T05:14:25.679Z,100.00
2023-02-11T05:16:52.249Z,100.00
2023-02-11T05:19:21.997Z,100.00
2023-02-11T05:22:01.833Z,100.00
2023-02-11T05:24:29.846Z,100.00
2023-02-11T05:26:56.542Z,100.00
2023-02-11T05:29:23.288Z,100.00
2023-02-11T05:31:49.964Z,100.00
2023-02-11T05:34:16.599Z,100.00
2023-02-11T05:36:43.055Z,100.00
2023-02-11T05:39:09.699Z,100.00
2023-02-11T05:41:36.336Z,100.00
2023-02-11T05:44:02.960Z,100.00
2023-02-11T05:46:29.540Z,100.00
2023-02-11T05:48:56.929Z,100.00
2023-02-11T05:51:25.232Z,100.00
2023-02-11T05:53:51.767Z,100.00
2023-02-11T05:56:18.223Z,100.00
2023-02-11T05:58:44.589Z,100.00
2023-02-11T06:01:11.352Z,100.00
2023-02-11T06:03:38.126Z,100.00
2023-02-11T06:06:05.036Z,100.00
2023-02-11T06:08:31.493Z,100.00
2023-02-11T06:10:57.970Z,100.00
2023-02-11T06:13:24.427Z,100.00
2023-02-11T06:15:58.736Z,100.00
2023-02-11T06:18:25.740Z,100.00
2023-02-11T06:20:52.920Z,100.00
2023-02-11T06:23:19.826Z,100.00
2023-02-11T06:25:47.041Z,100.00
2023-02-11T06:28:13.847Z,100.00
2023-02-11T06:30:40.908Z,100.00
2023-02-11T06:33:07.382Z,100.00
2023-02-11T06:35:35.536Z,100.00
2023-02-11T06:38:02.165Z,100.00
2023-02-11T06:40:28.670Z,100.00
2023-02-11T06:42:55.267Z,100.00
2023-02-11T06:45:21.718Z,100.00
2023-02-11T06:47:48.155Z,100.00
2023-02-11T06:50:15.191Z,100.00
2023-02-11T06:52:41.783Z,100.00
2023-02-11T06:55:08.756Z,100.00
2023-02-11T06:57:35.894Z,100.00
2023-02-11T07:00:02.887Z,100.00
2023-02-11T07:02:29.644Z,100.00
2023-02-11T07:04:58.391Z,100.00
2023-02-11T07:07:25.108Z,100.00
2023-02-11T07:09:51.596Z,100.00
2023-02-11T07:12:18.316Z,100.00
2023-02-11T07:14:44.759Z,100.00
2023-02-11T07:17:11.131Z,100.00
2023-02-11T07:19:38.164Z,100.00
2023-02-11T07:22:04.638Z,100.00
2023-02-11T07:24:31.388Z,100.00
2023-02-11T07:27:24.167Z,100.00
2023-02-11T07:29:53.694Z,100.00
2023-02-11T07:32:27.977Z,100.00
2023-02-11T07:34:54.534Z,100.00
2023-02-11T07:37:21.871Z,100.00
2023-02-11T07:39:50.962Z,100.00
2023-02-11T07:42:17.689Z,100.00
2023-02-11T07:45:40.891Z,100.00
2023-02-11T07:47:42.808Z,100.00
2023-02-11T07:50:10.663Z,100.00
2023-02-11T07:52:37.481Z,100.00
2023-02-11T07:55:07.119Z,100.00
2023-02-11T07:57:33.657Z,100.00
2023-02-11T08:00:02.405Z,100.00
2023-02-11T08:02:31.152Z,100.00
2023-02-11T08:05:00.713Z,100.00
2023-02-11T08:07:29.600Z,100.00
2023-02-11T08:09:57.630Z,100.00
2023-02-11T08:12:28.837Z,100.00
2023-02-11T08:14:58.813Z,100.00
2023-02-11T08:17:26.492Z,100.00
2023-02-11T08:19:53.934Z,100.00
2023-02-11T08:25:31.170Z,100.00
2023-02-11T08:28:05.173Z,100.00
2023-02-11T08:30:32.967Z,100.00
2023-02-11T08:33:15.165Z,100.00
2023-02-11T08:35:55.043Z,100.00
2023-02-11T08:38:45.761Z,100.00
2023-02-11T08:41:45.775Z,100.00
2023-02-11T08:48:51.361Z,100.00
2023-02-11T08:51:42.941Z,100.00
2023-02-11T08:54:11.422Z,100.00
2023-02-11T08:56:38.845Z,100.00
2023-02-11T08:59:07.318Z,100.00
2023-02-11T09:01:34.342Z,100.00
2023-02-11T09:04:02.263Z,100.00
2023-02-11T09:06:29.471Z,100.00
2023-02-11T09:09:00.134Z,100.00
2023-02-11T09:11:32.984Z,100.00
2023-02-11T09:14:01.083Z,100.00
2023-02-11T09:16:32.253Z,100.00
2023-02-11T09:19:00.671Z,100.00
2023-02-11T09:21:29.245Z,100.00
2023-02-11T09:23:56.273Z,100.00
2023-02-11T09:26:29.212Z,100.00
2023-02-11T09:29:00.380Z,100.00
2023-02-11T09:31:29.595Z,100.00
2023-02-11T09:34:00.504Z,100.00
2023-02-11T09:36:30.000Z,100.00
2023-02-11T09:39:00.740Z,100.00
2023-02-11T09:41:47.133Z,100.00
2023-02-11T09:44:29.852Z,100.00
2023-02-11T09:46:59.922Z,100.00
2023-02-11T09:49:53.813Z,100.00
2023-02-11T09:52:46.927Z,100.00
2023-02-11T09:55:55.999Z,100.00
2023-02-11T09:58:36.852Z,100.00
2023-02-11T10:01:22.130Z,100.00
2023-02-11T10:03:48.637Z,100.00
2023-02-11T10:06:31.245Z,100.00
2023-02-11T10:09:22.051Z,100.00
2023-02-11T10:12:26.099Z,100.00
2023-02-11T10:15:16.160Z,100.00
2023-02-11T10:17:51.822Z,100.00
2023-02-11T10:20:55.514Z,99.70
2023-02-11T10:23:29.851Z,100.00
2023-02-11T10:25:59.045Z,99.47
2023-02-11T10:28:34.732Z,99.43
2023-02-11T10:31:09.819Z,98.62
2023-02-11T10:33:45.461Z,97.81
2023-02-11T10:36:13.544Z,97.34
2023-02-11T10:38:40.743Z,97.35
2023-02-11T10:41:13.899Z,96.87
2023-02-11T10:43:42.694Z,96.23
2023-02-11T10:46:18.604Z,96.62
2023-02-11T10:48:51.592Z,95.96
2023-02-11T10:51:28.450Z,96.52
2023-02-11T10:54:03.826Z,96.05
2023-02-11T10:56:34.373Z,96.41
2023-02-11T10:59:04.842Z,95.77
2023-02-11T11:01:56.347Z,96.04
2023-02-11T11:04:40.428Z,96.21
2023-02-11T11:07:12.141Z,95.98
2023-02-11T11:09:59.212Z,95.96
2023-02-11T11:12:27.931Z,94.79
2023-02-11T11:14:58.786Z,94.49
2023-02-11T11:17:30.349Z,93.28
2023-02-11T11:20:23.140Z,93.64
2023-02-11T11:22:52.603Z,94.45
2023-02-11T11:25:25.124Z,93.88
2023-02-11T11:27:54.180Z,93.38
2023-02-11T11:30:21.015Z,93.77
2023-02-11T11:32:47.609Z,93.32
2023-02-11T11:35:25.295Z,92.96
2023-02-11T11:38:04.049Z,92.83
2023-02-11T11:40:33.176Z,91.87
2023-02-11T11:43:22.651Z,92.56
2023-02-11T11:45:57.727Z,92.07
2023-02-11T11:51:35.018Z,90.69
2023-02-11T11:54:06.556Z,91.06
2023-02-11T11:56:37.984Z,90.55
2023-02-11T11:59:14.000Z,91.14
2023-02-11T12:02:02.428Z,91.12
2023-02-11T12:04:42.786Z,90.33
2023-02-11T12:07:40.278Z,90.43
2023-02-11T12:10:31.819Z,89.90
2023-02-11T12:13:28.572Z,89.77
2023-02-11T12:16:33.729Z,89.34
2023-02-11T12:19:34.478Z,89.37
2023-02-11T12:22:36.634Z,88.22
2023-02-11T12:25:25.222Z,87.73
2023-02-11T12:28:04.118Z,88.08
2023-02-11T12:31:01.181Z,87.57
2023-02-11T12:33:55.563Z,87.80
2023-02-11T12:36:42.765Z,87.86
2023-02-11T12:39:32.221Z,87.65
2023-02-11T12:42:32.621Z,87.79
2023-02-11T12:45:11.344Z,87.77
2023-02-11T12:47:56.059Z,87.23
2023-02-11T12:50:45.713Z,86.35
2023-02-11T12:53:32.285Z,86.94
2023-02-11T12:56:05.472Z,85.83
2023-02-11T12:58:45.081Z,86.53
2023-02-11T13:01:39.770Z,85.99
2023-02-11T13:04:13.660Z,86.36
2023-02-11T13:06:54.886Z,85.78
2023-02-11T13:09:35.657Z,85.33
2023-02-11T13:12:22.585Z,84.78
2023-02-11T13:14:52.179Z,84.62
2023-02-11T13:17:36.732Z,85.11
2023-02-11T13:20:18.085Z,84.44
2023-02-11T13:22:57.235Z,83.86
2023-02-11T13:25:40.761Z,84.25
2023-02-11T13:28:27.571Z,83.61
2023-02-11T13:31:02.600Z,83.27
2023-02-11T13:33:36.463Z,83.45
2023-02-11T13:36:04.752Z,84.18
2023-02-11T13:38:32.633Z,83.97
2023-02-11T13:41:41.319Z,84.61
2023-02-11T13:44:10.561Z,84.06
2023-02-11T13:46:55.684Z,83.72
2023-02-11T13:49:42.232Z,84.08
2023-02-11T13:52:18.651Z,83.57
2023-02-11T13:54:51.066Z,83.67
2023-02-11T13:57:20.747Z,83.81
2023-02-11T14:00:30.447Z,84.17
2023-02-11T14:03:30.756Z,83.94
2023-02-11T14:06:27.829Z,84.59
2023-02-11T14:09:09.530Z,83.85
2023-02-11T14:12:29.943Z,84.37
2023-02-11T14:15:07.870Z,85.02
2023-02-11T14:17:34.826Z,84.57
2023-02-11T14:20:04.593Z,84.68
2023-02-11T14:22:43.043Z,84.79
2023-02-11T14:25:21.828Z,84.51
2023-02-11T14:27:56.696Z,85.12
2023-02-11T14:30:35.564Z,84.27
2023-02-11T14:33:20.322Z,84.13
2023-02-11T14:36:10.157Z,84.28
2023-02-11T14:38:58.436Z,84.97
2023-02-11T14:41:39.898Z,84.24
2023-02-11T14:44:19.356Z,84.53
2023-02-11T14:46:48.703Z,84.01
2023-02-11T14:49:29.117Z,84.60
2023-02-11T14:52:03.879Z,84.59
2023-02-11T14:54:31.257Z,83.90
2023-02-11T14:57:30.677Z,83.79
2023-02-11T15:00:03.215Z,84.29
2023-02-11T15:02:34.007Z,84.82
2023-02-11T15:05:22.637Z,85.33
2023-02-11T15:07:55.699Z,85.21
2023-02-11T15:10:41.439Z,84.43
2023-02-11T15:13:09.058Z,84.52
2023-02-11T15:15:40.557Z,84.67
2023-02-11T15:18:09.508Z,84.50
2023-02-11T15:20:36.061Z,85.50
2023-02-11T15:23:07.200Z,85.23
2023-02-11T15:25:34.437Z,85.28
2023-02-11T15:28:01.045Z,85.36
2023-02-11T15:30:34.002Z,85.23
2023-02-11T15:33:03.317Z,85.19
2023-02-11T15:35:39.712Z,85.98
2023-02-11T15:38:07.467Z,85.36
2023-02-11T15:40:36.886Z,85.73
2023-02-11T15:43:06.992Z,86.39
2023-02-11T15:45:36.913Z,86.60
2023-02-11T15:48:20.121Z,86.79
2023-02-11T15:50:55.552Z,86.53
2023-02-11T15:53:27.533Z,86.51
2023-02-11T15:56:17.999Z,88.01
2023-02-11T15:58:47.777Z,87.16
2023-02-11T16:01:14.636Z,87.59
2023-02-11T16:03:43.283Z,88.38
2023-02-11T16:06:35.013Z,88.37
2023-02-11T16:09:10.999Z,88.92
2023-02-11T16:11:54.847Z,88.30
2023-02-11T16:14:27.765Z,88.83
2023-02-11T16:16:57.845Z,88.91
2023-02-11T16:19:26.495Z,88.45
2023-02-11T16:21:55.203Z,88.95
2023-02-11T16:24:33.781Z,89.25
2023-02-11T16:27:02.577Z,89.08
2023-02-11T16:29:35.234Z,88.90
2023-02-11T16:32:26.771Z,89.78
2023-02-11T16:34:55.364Z,89.30
2023-02-11T16:37:21.826Z,89.12
2023-02-11T16:39:48.255Z,89.43
2023-02-11T16:42:15.736Z,90.05
2023-02-11T16:44:42.141Z,89.92
2023-02-11T16:47:23.917Z,89.52
2023-02-11T16:49:50.696Z,89.41
2023-02-11T16:52:18.212Z,89.95
2023-02-11T16:54:44.797Z,89.95
2023-02-11T16:57:16.079Z,90.12
2023-02-11T16:59:43.357Z,90.13
2023-02-11T17:02:18.477Z,90.50
2023-02-11T17:04:45.464Z,90.84
2023-02-11T17:07:12.569Z,90.23
2023-02-11T17:09:39.183Z,91.33
2023-02-11T17:12:06.307Z,90.77
2023-02-11T17:14:32.741Z,90.91
2023-02-11T17:16:59.164Z,90.79
2023-02-11T17:19:25.582Z,90.84
2023-02-11T17:21:53.084Z,91.26
2023-02-11T17:24:21.579Z,91.53
2023-02-11T17:26:49.599Z,91.71
2023-02-11T17:29:18.907Z,91.76
2023-02-11T17:31:45.490Z,91.40
2023-02-11T17:34:12.358Z,91.54
2023-02-11T17:36:41.204Z,91.77
2023-02-11T17:39:08.458Z,91.83
2023-02-11T17:41:38.244Z,91.61
2023-02-11T17:44:05.892Z,92.38
2023-02-11T17:46:34.303Z,92.00
2023-02-11T17:49:01.965Z,92.12
2023-02-11T17:51:36.929Z,92.31
2023-02-11T17:54:06.589Z,93.06
2023-02-11T17:56:35.671Z,93.19
2023-02-11T17:59:02.904Z,92.60
2023-02-11T18:01:31.477Z,92.83
2023-02-11T18:03:58.090Z,92.96
2023-02-11T18:06:24.802Z,93.34
2023-02-11T18:08:51.652Z,92.72
2023-02-11T18:11:18.724Z,92.89
2023-02-11T18:13:45.489Z,93.69
2023-02-11T18:16:15.572Z,93.37
2023-02-11T18:18:43.531Z,93.39
2023-02-11T18:21:18.823Z,93.57
2023-02-11T18:23:46.293Z,93.90
2023-02-11T18:26:14.479Z,93.39
2023-02-11T18:28:43.896Z,93.66
2023-02-11T18:31:12.357Z,93.55
2023-02-11T18:33:40.110Z,93.57
2023-02-11T18:36:11.892Z,93.78
2023-02-11T18:38:39.229Z,93.76
2023-02-11T18:41:07.136Z,93.55
2023-02-11T18:43:34.403Z,93.40
2023-02-11T18:46:06.228Z,93.34
2023-02-11T18:48:32.984Z,93.77
2023-02-11T18:51:00.212Z,93.49
2023-02-11T18:53:26.777Z,93.57
2023-02-11T18:55:54.117Z,93.84
2023-02-11T18:58:23.724Z,93.36
2023-02-11T19:00:50.562Z,93.40
2023-02-11T19:03:17.088Z,93.40
2023-02-11T19:05:47.284Z,92.91
2023-02-11T19:08:14.487Z,93.65
2023-02-11T19:10:47.832Z,93.26
2023-02-11T19:13:14.751Z,92.73
2023-02-11T19:15:42.751Z,93.28
2023-02-11T19:18:09.851Z,93.33
2023-02-11T19:20:39.503Z,93.15
2023-02-11T19:23:05.985Z,93.55
2023-02-11T19:25:32.879Z,93.28
2023-02-11T19:28:00.284Z,93.37
2023-02-11T19:30:27.524Z,93.08
2023-02-11T19:32:56.986Z,92.98
2023-02-11T19:35:24.287Z,93.12
2023-02-11T19:37:50.783Z,93.44
2023-02-11T19:40:17.579Z,93.22
2023-02-11T19:42:44.946Z,93.27
2023-02-11T19:45:11.451Z,93.76
2023-02-11T19:47:38.026Z,92.93
2023-02-11T19:50:05.651Z,93.17
2023-02-11T19:52:32.148Z,93.80
2023-02-11T19:54:59.274Z,93.15
2023-02-11T19:57:25.933Z,93.45
2023-02-11T19:59:54.748Z,93.40
2023-02-11T20:02:21.290Z,93.27
2023-02-11T20:04:48.449Z,93.23
2023-02-11T20:07:15.050Z,93.41
2023-02-11T20:09:42.503Z,93.45
2023-02-11T20:12:09.290Z,93.10
2023-02-11T20:14:35.753Z,93.08
2023-02-11T20:17:02.477Z,93.15
2023-02-11T20:19:30.524Z,93.25
2023-02-11T20:21:57.114Z,93.50
2023-02-11T20:24:24.510Z,93.79
2023-02-11T20:26:55.178Z,93.16
2023-02-11T20:29:22.344Z,93.26
2023-02-11T20:31:50.219Z,93.99
2023-02-11T20:34:17.898Z,93.65
2023-02-11T20:36:51.420Z,93.61
2023-02-11T20:39:19.128Z,93.47
2023-02-11T20:41:46.124Z,93.84
2023-02-11T20:44:12.936Z,93.94
2023-02-11T20:46:43.510Z,93.66
2023-02-11T20:49:12.451Z,94.19
2023-02-11T20:51:39.332Z,93.86
2023-02-11T20:54:06.360Z,93.64
2023-02-11T20:56:36.658Z,93.83
2023-02-11T20:59:04.386Z,93.73
2023-02-11T21:01:43.603Z,93.88
2023-02-11T21:04:16.159Z,94.27
2023-02-11T21:06:45.809Z,93.69
2023-02-11T21:09:15.816Z,93.86
2023-02-11T21:11:43.048Z,94.30
2023-02-11T21:14:10.268Z,94.48
2023-02-11T21:16:37.128Z,94.03
2023-02-11T21:19:03.973Z,93.96
2023-02-11T21:21:30.734Z,93.88
2023-02-11T21:23:58.408Z,94.25
2023-02-11T21:26:24.991Z,94.04
2023-02-11T21:28:52.132Z,94.41
2023-02-11T21:31:24.938Z,94.23
2023-02-11T21:33:53.021Z,94.57
2023-02-11T21:36:20.253Z,94.31
2023-02-11T21:38:47.040Z,94.74
2023-02-11T21:41:13.540Z,94.75
2023-02-11T21:43:40.042Z,94.27
2023-02-11T21:46:09.001Z,94.25
2023-02-11T21:48:51.316Z,94.55
2023-02-11T21:51:21.131Z,95.17
2023-02-11T21:53:47.909Z,95.25
2023-02-11T21:56:17.211Z,94.60
2023-02-11T21:58:45.080Z,94.83
2023-02-11T22:01:17.791Z,94.95
2023-02-11T22:03:45.589Z,95.07
2023-02-11T22:06:14.840Z,94.98
2023-02-11T22:08:41.748Z,94.19
2023-02-11T22:11:11.108Z,94.51
2023-02-11T22:13:37.711Z,94.41
2023-02-11T22:16:07.404Z,94.68
2023-02-11T22:18:33.952Z,95.09
2023-02-11T22:21:02.699Z,95.12
2023-02-11T22:23:29.976Z,95.40
2023-02-11T22:25:57.339Z,95.27
2023-02-11T22:28:25.909Z,94.96
2023-02-11T22:30:54.252Z,95.43
2023-02-11T22:33:21.027Z,95.24
2023-02-11T22:35:47.438Z,95.33
2023-02-11T22:38:13.785Z,95.37
2023-02-11T22:40:43.964Z,95.21
2023-02-11T22:43:10.456Z,95.38
2023-02-11T22:45:36.904Z,95.58
2023-02-11T22:48:03.589Z,95.44
2023-02-11T22:50:30.210Z,95.67
2023-02-11T22:52:56.747Z,95.25
2023-02-11T22:55:23.223Z,95.52
2023-02-11T22:57:49.608Z,95.46
2023-02-11T23:00:17.132Z,95.85
2023-02-11T23:02:43.656Z,96.18
2023-02-11T23:05:10.102Z,96.50
2023-02-11T23:07:36.569Z,95.82
2023-02-11T23:10:03.767Z,95.79
2023-02-11T23:12:30.250Z,96.05
2023-02-11T23:14:56.719Z,95.99
2023-02-11T23:17:24.508Z,96.10
2023-02-11T23:19:51.111Z,95.99
2023-02-11T23:22:17.540Z,96.03
2023-02-11T23:24:43.970Z,96.40
2023-02-11T23:27:10.396Z,96.17
2023-02-11T23:29:36.894Z,96.49
2023-02-11T23:32:03.462Z,96.30
2023-02-11T23:34:29.912Z,96.05
2023-02-11T23:36:57.635Z,96.38
2023-02-11T23:39:24.112Z,96.60
2023-02-11T23:41:52.650Z,96.16
2023-02-11T23:44:19.050Z,95.79
2023-02-11T23:46:46.210Z,96.68
2023-02-11T23:49:12.970Z,96.11
2023-02-11T23:51:39.434Z,96.51
2023-02-11T23:54:05.981Z,96.04
2023-02-11T23:56:32.484Z,95.92
2023-02-11T23:58:59.327Z,96.38
